Time;durP1;ratioP1;P1;durP2;ratioP2;P2;SDS_P1;SDS_P2;PMS_P1;PMS_P2;Temp;Humidity;BMP_temperature;BMP_pressure;BME280_temperature;BME280_humidity;BME280_pressure;Samples;Min_cycle;Max_cycle;Signal;HPM_P1;HPM_P2
2022/08/22 00:01:51;;;;;;;;;;;;;;;19.10;100.00;98823.69;5052651;28;1142;-62
2022/08/22 00:04:36;;;;;;;;;;;;;;;19.13;100.00;98833.91;5067831;28;1945;-62
2022/08/22 00:07:11;;;;;;;;;;;;;;;19.14;100.00;98824.25;5052914;28;892;-62
2022/08/22 00:09:58;;;;;;;;;;;;;;;19.12;100.00;98830.34;5052414;28;790;-62
2022/08/22 00:12:31;;;;;;;;;;;;;;;19.08;100.00;98826.19;5052287;28;1285;-62
2022/08/22 00:15:06;;;;;;;;;;;;;;;19.03;100.00;98821.25;5052343;28;857;-62
2022/08/22 00:17:52;;;;;;;;;;;;;;;18.97;100.00;98819.16;5052396;28;782;-62
2022/08/22 00:20:45;;;;;;;;;;;;;;;18.94;100.00;98813.75;5052191;28;822;-62
2022/08/22 00:23:16;;;;;;;;;;;;;;;19.12;100.00;98815.56;5050331;28;1235;-62
2022/08/22 00:25:51;;;;;;;;;;;;;;;19.22;100.00;98821.81;5052084;28;1955;-62
2022/08/22 00:28:35;;;;;;;;;;;;;;;19.27;100.00;98807.91;5052230;28;877;-62
2022/08/22 00:31:02;;;;;;;;;;;;;;;19.18;100.00;98822.00;5052048;28;822;-61
2022/08/22 00:33:29;;;;;;;;;;;;;;;19.11;100.00;98823.19;5051972;28;869;-62
2022/08/22 00:36:08;;;;;;;;;;;;;;;19.08;100.00;98829.75;5050692;28;1180;-62
2022/08/22 00:38:39;;;;;;;;;;;;;;;19.05;100.00;98829.94;5051943;28;834;-62
2022/08/22 00:41:23;;;;;;;;;;;;;;;19.03;100.00;98838.81;5051880;28;865;-62
2022/08/22 00:44:08;;;;;;;;;;;;;;;18.95;100.00;98832.84;5051809;28;1910;-62
2022/08/22 00:46:47;;;;;;;;;;;;;;;18.85;100.00;98830.66;5051846;28;866;-62
2022/08/22 00:49:23;;;;;;;;;;;;;;;18.75;100.00;98825.13;5051795;28;810;-61
2022/08/22 00:52:07;;;;;;;;;;;;;;;18.72;100.00;98830.91;5051965;28;819;-62
2022/08/22 00:54:34;;;;;;;;;;;;;;;18.69;100.00;98826.25;5051907;28;826;-61
2022/08/22 00:57:15;;;;;;;;;;;;;;;18.71;100.00;98823.75;5051666;28;870;-62
2022/08/22 01:00:12;;;;;;;;;;;;;;;18.72;100.00;98826.06;5051660;28;845;-62
2022/08/22 01:03:02;;;;;;;;;;;;;;;18.77;100.00;98833.00;5035848;28;1375;-62
2022/08/22 01:08:46;;;;;;;;;;;;;;;18.94;100.00;98833.34;5051554;28;613;-62
2022/08/22 01:11:31;;;;;;;;;;;;;;;18.98;100.00;98834.69;5051512;28;838;-62
2022/08/22 01:13:58;;;;;;;;;;;;;;;19.02;100.00;98834.50;5051465;28;830;-61
2022/08/22 01:16:42;;;;;;;;;;;;;;;19.07;100.00;98835.84;5051322;28;909;-63
2022/08/22 01:28:41;;;;;;;;;;;;;;;18.72;100.00;98842.09;5051654;28;612;-63
2022/08/22 01:31:46;;;;;;;;;;;;;;;18.68;100.00;98835.91;5009515;28;1055;-63
2022/08/22 01:34:18;;;;;;;;;;;;;;;18.67;100.00;98837.16;5009619;28;799;-63
2022/08/22 01:37:00;;;;;;;;;;;;;;;18.67;100.00;98825.97;5009456;28;904;-63
2022/08/22 01:39:43;;;;;;;;;;;;;;;18.69;100.00;98831.84;5009777;28;893;-63
2022/08/22 01:42:27;;;;;;;;;;;;;;;18.67;100.00;98823.97;5009460;28;940;-63
2022/08/22 01:45:08;;;;;;;;;;;;;;;18.65;100.00;98832.06;5009340;28;1902;-63
2022/08/22 01:47:50;;;;;;;;;;;;;;;18.64;100.00;98835.34;5009489;28;854;-63
2022/08/22 01:50:20;;;;;;;;;;;;;;;18.56;100.00;98826.53;4993165;28;865;-63
2022/08/22 01:52:49;;;;;;;;;;;;;;;18.49;100.00;98827.69;5009450;28;799;-63
2022/08/22 01:55:24;;;;;;;;;;;;;;;18.43;100.00;98826.81;5009265;28;1035;-63
2022/08/22 01:57:59;;;;;;;;;;;;;;;18.41;100.00;98831.34;5009358;28;779;-63
2022/08/22 02:00:26;;;;;;;;;;;;;;;18.37;100.00;98839.94;5009467;28;1077;-63
2022/08/22 02:03:00;;;;;;;;;;;;;;;18.33;100.00;98842.91;4994021;28;1247;-63
2022/08/22 02:05:36;;;;;;;;;;;;;;;18.28;100.00;98837.97;5012913;28;1986;-63
2022/08/22 02:08:12;;;;;;;;;;;;;;;18.24;100.00;98831.00;5030114;28;1053;-63
2022/08/22 02:11:14;;;;;;;;;;;;;;;18.21;100.00;98821.56;5054702;28;818;-63
2022/08/22 02:13:45;;;;;;;;;;;;;;;18.16;100.00;98827.84;5012755;28;1104;-63
2022/08/22 02:16:41;;;;;;;;;;;;;;;18.15;100.00;98817.88;5047574;28;918;-63
2022/08/22 02:19:13;;;;;;;;;;;;;;;18.13;100.00;98814.78;5045551;28;1260;-63
2022/08/22 02:21:42;;;;;;;;;;;;;;;18.10;100.00;98818.56;5054558;28;794;-63
2022/08/22 02:24:25;;;;;;;;;;;;;;;18.04;100.00;98812.84;5054393;28;1941;-63
2022/08/22 02:27:12;;;;;;;;;;;;;;;18.04;100.00;98810.03;5054409;28;865;-63
2022/08/22 02:29:49;;;;;;;;;;;;;;;18.13;100.00;98798.78;5046987;28;1239;-63
2022/08/22 02:32:28;;;;;;;;;;;;;;;18.29;100.00;98808.75;5053105;28;881;-63
2022/08/22 02:35:02;;;;;;;;;;;;;;;18.71;100.00;98807.75;5054475;28;811;-63
2022/08/22 02:37:31;;;;;;;;;;;;;;;19.26;100.00;98802.78;5054229;28;858;-63
2022/08/22 02:40:07;;;;;;;;;;;;;;;19.58;100.00;98801.72;5054306;28;1244;-63
2022/08/22 02:42:46;;;;;;;;;;;;;;;19.71;100.00;98795.78;5054154;28;798;-63
2022/08/22 02:45:25;;;;;;;;;;;;;;;19.76;100.00;98797.91;5053875;28;1886;-63
2022/08/22 02:48:31;;;;;;;;;;;;;;;19.78;100.00;98800.22;5054106;28;802;-63
2022/08/22 02:51:05;;;;;;;;;;;;;;;19.78;100.00;98797.44;4995665;28;1228;-63
2022/08/22 02:53:36;;;;;;;;;;;;;;;19.78;100.00;98801.00;5012316;28;798;-63
2022/08/22 02:56:03;;;;;;;;;;;;;;;19.77;100.00;98805.06;5035041;28;1436;-63
2022/08/22 02:58:59;;;;;;;;;;;;;;;19.77;100.00;98804.28;5053830;28;778;-63
2022/08/22 03:01:28;;;;;;;;;;;;;;;19.74;100.00;98800.44;5044716;28;1240;-63
2022/08/22 03:04:13;;;;;;;;;;;;;;;19.73;100.00;98812.13;5053505;28;1906;-63
2022/08/22 03:18:58;;;;;;;;;;;;;;;19.76;100.00;98823.16;5054009;28;663;-63
2022/08/22 03:21:36;;;;;;;;;;;;;;;19.74;100.00;98817.25;5053455;28;794;-64
2022/08/22 03:24:02;;;;;;;;;;;;;;;19.74;100.00;98825.66;5053335;28;1902;-63
2022/08/22 03:26:48;;;;;;;;;;;;;;;19.73;100.00;98817.72;5053397;28;814;-64
2022/08/22 03:29:23;;;;;;;;;;;;;;;19.80;100.00;98814.53;5053275;28;783;-63
2022/08/22 03:35:26;;;;;;;;;;;;;;;19.87;100.00;98830.16;5053146;28;664;-63
2022/08/22 03:37:56;;;;;;;;;;;;;;;19.96;99.94;98830.00;5053091;28;802;-63
2022/08/22 03:40:32;;;;;;;;;;;;;;;20.05;99.37;98832.66;5053035;28;826;-63
2022/08/22 03:43:24;;;;;;;;;;;;;;;20.08;99.04;98831.72;5053263;28;787;-63
2022/08/22 03:46:00;;;;;;;;;;;;;;;20.07;99.23;98832.19;5052945;28;1926;-63
2022/08/22 03:48:45;;;;;;;;;;;;;;;20.09;98.89;98827.63;5051557;28;1235;-63
2022/08/22 03:51:20;;;;;;;;;;;;;;;20.10;99.11;98837.59;5052859;28;849;-63
2022/08/22 03:53:50;;;;;;;;;;;;;;;20.15;98.75;98836.13;5068186;28;802;-63
2022/08/22 03:56:19;;;;;;;;;;;;;;;20.18;98.67;98829.50;5051689;28;1223;-63
2022/08/22 03:58:46;;;;;;;;;;;;;;;20.21;98.21;98833.38;5052754;28;830;-63
2022/08/22 04:01:28;;;;;;;;;;;;;;;20.24;98.13;98826.78;5053027;28;906;-64
2022/08/22 04:07:23;;;;;;;;;;;;;;;20.29;98.18;98831.66;5010817;28;668;-63
2022/08/22 04:09:57;;;;;;;;;;;;;;;20.31;98.00;98832.75;5010678;28;1033;-63
2022/08/22 04:12:27;;;;;;;;;;;;;;;20.34;97.77;98842.97;4994323;28;1357;-63
2022/08/22 04:15:21;;;;;;;;;;;;;;;20.38;97.52;98842.75;5010505;28;937;-63
2022/08/22 04:17:59;;;;;;;;;;;;;;;20.41;97.38;98844.56;4981050;28;1277;-63
2022/08/22 04:20:31;;;;;;;;;;;;;;;20.45;97.02;98842.31;5010695;28;1045;-63
2022/08/22 04:23:00;;;;;;;;;;;;;;;20.49;96.55;98842.13;5010467;28;847;-63
2022/08/22 04:28:42;;;;;;;;;;;;;;;20.54;96.28;98863.84;5010372;28;967;-63
2022/08/22 04:31:12;;;;;;;;;;;;;;;20.57;96.19;98865.69;5010409;28;822;-63
2022/08/22 04:33:48;;;;;;;;;;;;;;;20.63;95.78;98868.56;5010229;28;1155;-62
2022/08/22 04:36:16;;;;;;;;;;;;;;;20.69;95.68;98863.78;4993818;28;1259;-63
2022/08/22 04:38:51;;;;;;;;;;;;;;;20.77;95.73;98867.69;5010262;28;858;-63
2022/08/22 04:41:23;;;;;;;;;;;;;;;20.89;94.95;98869.34;5037306;28;930;-63
2022/08/22 04:43:54;;;;;;;;;;;;;;;21.04;94.40;98879.66;5051696;28;1981;-63
2022/08/22 04:46:38;;;;;;;;;;;;;;;21.18;93.75;98879.53;5051954;28;794;-62
2022/08/22 04:49:11;;;;;;;;;;;;;;;21.36;93.17;98883.28;5051868;28;810;-62
2022/08/22 04:51:47;;;;;;;;;;;;;;;21.54;92.73;98891.34;5051739;28;838;-62
2022/08/22 04:54:23;;;;;;;;;;;;;;;21.74;91.61;98886.88;5051787;28;869;-62
2022/08/22 04:57:09;;;;;;;;;;;;;;;21.91;91.14;98898.22;5050649;28;1330;-62
2022/08/22 04:59:36;;;;;;;;;;;;;;;22.05;90.53;98902.91;5051598;28;822;-62
2022/08/22 05:02:07;;;;;;;;;;;;;;;22.17;89.63;98898.13;5051551;28;1182;-62
2022/08/22 05:04:46;;;;;;;;;;;;;;;22.22;88.70;98897.38;5051557;28;1910;-62
2022/08/22 05:07:26;;;;;;;;;;;;;;;22.26;88.04;98892.31;5051592;28;838;-63
2022/08/22 05:09:58;;;;;;;;;;;;;;;22.31;87.59;98888.72;5051582;28;806;-62
2022/08/22 05:12:29;;;;;;;;;;;;;;;22.42;87.36;98900.06;5051366;28;889;-62
2022/08/22 05:15:00;;;;;;;;;;;;;;;22.55;86.76;98893.16;5051480;28;826;-61
2022/08/22 05:17:28;;;;;;;;;;;;;;;22.63;86.20;98897.78;5051426;28;853;-62
2022/08/22 05:23:01;;;;;;;;;;;;;;;22.70;85.43;98896.53;5051409;28;621;-62
2022/08/22 05:37:43;;;;;;;;;;;;;;;23.22;81.91;98909.47;5054060;28;624;-62
2022/08/22 05:40:42;;;;;;;;;;;;;;;23.35;81.65;98909.72;5055316;28;787;-62
2022/08/22 05:55:27;;;;;;;;;;;;;;;24.21;76.35;98902.66;5055366;28;621;-61
2022/08/22 06:10:38;;;;;;;;;;;;;;;25.72;68.54;98913.56;5048034;28;1316;-61
2022/08/22 06:13:10;;;;;;;;;;;;;;;25.84;67.49;98921.41;5054721;28;875;-62
2022/08/22 06:15:51;;;;;;;;;;;;;;;25.82;67.24;98924.00;5054678;28;807;-61
2022/08/22 06:18:23;;;;;;;;;;;;;;;25.83;67.13;98924.78;5054692;28;795;-61
2022/08/22 06:21:01;;;;;;;;;;;;;;;25.75;67.20;98930.25;5054839;28;856;-61
2022/08/22 06:23:40;;;;;;;;;;;;;;;25.76;67.82;98923.31;5054551;28;802;-62
2022/08/22 06:26:10;;;;;;;;;;;;;;;25.81;66.93;98924.53;5054433;28;1909;-61
2022/08/22 06:28:42;;;;;;;;;;;;;;;25.93;66.93;98926.00;5054495;28;882;-61
2022/08/22 06:31:17;;;;;;;;;;;;;;;26.02;66.59;98922.03;5054402;28;783;-61
2022/08/22 06:33:56;;;;;;;;;;;;;;;26.39;65.80;98920.56;5054337;28;887;-61
2022/08/22 06:36:31;;;;;;;;;;;;;;;26.62;64.38;98936.03;5054266;28;1119;-61
2022/08/22 06:39:16;;;;;;;;;;;;;;;26.68;63.92;98935.97;5054210;28;810;-61
2022/08/22 06:41:55;;;;;;;;;;;;;;;27.11;62.31;98940.75;5054042;28;826;-61
2022/08/22 06:59:36;;;;;;;;;;;;;;;27.38;60.88;98943.75;5053899;28;612;-62
2022/08/22 07:17:48;;;;;;;;;;;;;;;28.93;54.59;98962.53;5053571;28;642;-61
2022/08/22 07:20:24;;;;;;;;;;;;;;;29.56;52.97;98956.22;5052141;28;1250;-61
2022/08/22 07:23:00;;;;;;;;;;;;;;;30.21;51.43;98962.78;5053410;28;783;-60
2022/08/22 07:25:26;;;;;;;;;;;;;;;30.69;49.40;98962.53;5053601;28;1999;-60
2022/08/22 07:28:01;;;;;;;;;;;;;;;31.01;48.17;98958.50;5053273;28;872;-60
2022/08/22 07:30:38;;;;;;;;;;;;;;;30.98;47.98;98963.22;5053385;28;826;-61
2022/08/22 07:33:13;;;;;;;;;;;;;;;30.94;48.10;98965.69;5053208;28;822;-61
2022/08/22 07:35:42;;;;;;;;;;;;;;;31.44;46.62;98971.16;5053148;28;803;-61
2022/08/22 07:38:18;;;;;;;;;;;;;;;31.42;46.68;98966.00;5068483;28;1179;-61
2022/08/22 07:40:56;;;;;;;;;;;;;;;31.43;47.02;98966.78;5053287;28;790;-61
2022/08/22 07:43:27;;;;;;;;;;;;;;;31.67;46.10;98957.66;5053085;28;798;-60
2022/08/22 07:45:53;;;;;;;;;;;;;;;31.62;45.88;98969.28;5053116;28;1885;-60
2022/08/22 07:51:45;;;;;;;;;;;;;;;32.32;44.74;98957.22;5052919;28;597;-60
2022/08/22 07:54:38;;;;;;;;;;;;;;;33.02;42.79;98960.63;5046879;28;1150;-60
2022/08/22 07:57:10;;;;;;;;;;;;;;;33.03;42.60;98962.16;5048728;28;1028;-59
2022/08/22 07:59:41;;;;;;;;;;;;;;;33.14;42.17;98969.56;5052638;28;774;-60
2022/08/22 08:02:11;;;;;;;;;;;;;;;33.79;40.69;98960.16;5053113;28;906;-61
2022/08/22 08:20:20;;;;;;;;;;;;;;;33.74;39.61;98944.72;5052592;28;861;-60
2022/08/22 08:22:47;;;;;;;;;;;;;;;33.62;39.95;98962.97;5052269;28;814;-60
2022/08/22 08:25:18;;;;;;;;;;;;;;;33.60;40.38;98965.66;5052254;28;1917;-61
2022/08/22 08:30:38;;;;;;;;;;;;;;;33.83;39.38;98960.50;5052165;28;628;-61
2022/08/22 08:33:20;;;;;;;;;;;;;;;33.97;39.43;98960.97;5052271;28;806;-60
2022/08/22 08:48:09;;;;;;;;;;;;;;;30.16;47.80;98962.97;5052156;28;664;-61
2022/08/22 08:53:56;;;;;;;;;;;;;;;32.00;44.03;98957.13;5051655;28;1201;-61
2022/08/22 08:56:34;;;;;;;;;;;;;;;32.81;42.47;98952.34;5051789;28;834;-61
2022/08/22 08:59:03;;;;;;;;;;;;;;;33.63;40.32;98950.16;5052001;28;847;-62
2022/08/22 09:01:45;;;;;;;;;;;;;;;32.99;40.62;98958.94;5052028;28;1005;-62
2022/08/22 09:04:25;;;;;;;;;;;;;;;31.93;43.15;98955.75;5051499;28;1906;-62
2022/08/22 09:07:01;;;;;;;;;;;;;;;31.07;44.52;98965.53;5051620;28;909;-61
2022/08/22 09:09:39;;;;;;;;;;;;;;;30.39;46.03;98957.44;5051475;28;803;-62
2022/08/22 09:12:27;;;;;;;;;;;;;;;30.12;46.66;98949.81;5051008;28;856;-62
2022/08/22 09:15:24;;;;;;;;;;;;;;;30.37;46.46;98955.13;5051547;28;873;-62
2022/08/22 09:17:58;;;;;;;;;;;;;;;31.69;43.97;98942.81;5051122;28;1195;-62
2022/08/22 09:20:41;;;;;;;;;;;;;;;32.95;41.88;98950.00;5050087;28;1327;-61
2022/08/22 09:23:35;;;;;;;;;;;;;;;33.85;40.03;98942.75;5051412;28;889;-61
2022/08/22 09:26:16;;;;;;;;;;;;;;;33.68;39.05;98941.34;5051338;28;1969;-62
2022/08/22 09:29:16;;;;;;;;;;;;;;;33.00;40.30;98933.94;5051387;28;854;-62
2022/08/22 09:31:59;;;;;;;;;;;;;;;31.94;41.08;98940.13;5051331;28;799;-62
2022/08/22 10:08:03;;;;;;;;;;;;;;;34.09;36.89;98918.97;4950329;29;1307;-63
2022/08/22 10:10:50;;;;;;;;;;;;;;;33.58;37.41;98916.75;4953267;29;831;-63
2022/08/22 10:13:19;;;;;;;;;;;;;;;33.30;38.01;98912.97;4953272;29;1014;-63
2022/08/22 10:16:02;;;;;;;;;;;;;;;33.74;37.78;98912.47;4935901;29;1210;-64
2022/08/22 10:18:36;;;;;;;;;;;;;;;34.31;36.17;98913.63;4953035;29;866;-63
2022/08/22 10:21:21;;;;;;;;;;;;;;;34.33;35.40;98917.44;4953006;29;808;-63
2022/08/22 10:23:53;;;;;;;;;;;;;;;34.19;35.85;98912.63;4954124;28;863;-63
2022/08/22 10:26:32;;;;;;;;;;;;;;;33.37;37.48;98909.28;4956304;29;1898;-62
2022/08/22 10:29:14;;;;;;;;;;;;;;;32.45;38.96;98909.75;4956571;29;791;-63
2022/08/22 10:34:48;;;;;;;;;;;;;;;32.61;38.09;98908.38;4956028;29;1370;-63
2022/08/22 10:37:29;;;;;;;;;;;;;;;33.62;36.38;98912.16;4939032;29;1235;-63
2022/08/22 10:40:09;;;;;;;;;;;;;;;34.34;35.72;98906.72;4956182;29;815;-63
2022/08/22 10:42:39;;;;;;;;;;;;;;;34.51;35.95;98900.94;4939009;29;1261;-63
2022/08/22 10:45:27;;;;;;;;;;;;;;;34.24;35.85;98905.88;4955993;29;1949;-63
2022/08/22 10:47:58;;;;;;;;;;;;;;;33.74;36.67;98896.03;4956101;29;858;-64
2022/08/22 10:50:30;;;;;;;;;;;;;;;34.29;36.14;98901.97;4956082;29;796;-63
2022/08/22 10:55:49;;;;;;;;;;;;;;;34.38;35.24;98895.56;4955994;29;641;-62
2022/08/22 10:58:38;;;;;;;;;;;;;;;33.63;36.26;98901.47;4955827;29;882;-62
2022/08/22 11:01:26;;;;;;;;;;;;;;;33.23;37.38;98896.63;4955452;29;1055;-63
2022/08/22 11:03:52;;;;;;;;;;;;;;;33.23;37.50;98890.88;4955846;29;823;-63
2022/08/22 11:06:24;;;;;;;;;;;;;;;34.38;35.93;98884.09;4955537;29;1903;-63
2022/08/22 11:08:58;;;;;;;;;;;;;;;35.54;34.31;98877.50;4955748;29;858;-63
2022/08/22 11:11:31;;;;;;;;;;;;;;;35.85;34.26;98871.22;4955713;29;922;-63
2022/08/22 11:14:18;;;;;;;;;;;;;;;34.93;35.00;98876.31;4955544;29;784;-63
2022/08/22 11:16:50;;;;;;;;;;;;;;;34.83;35.41;98873.41;4955570;29;800;-63
2022/08/22 11:19:30;;;;;;;;;;;;;;;34.81;34.91;98872.50;4955540;29;768;-62
2022/08/22 11:22:09;;;;;;;;;;;;;;;35.36;33.93;98863.25;4955536;29;819;-63
2022/08/22 11:24:49;;;;;;;;;;;;;;;35.12;34.55;98870.69;4955386;29;1973;-63
2022/08/22 11:27:23;;;;;;;;;;;;;;;34.01;35.60;98874.56;4955368;29;792;-63
2022/08/22 11:30:08;;;;;;;;;;;;;;;33.39;36.81;98874.34;4955256;29;792;-63
2022/08/22 11:33:07;;;;;;;;;;;;;;;33.12;37.26;98869.97;4955297;29;804;-62
2022/08/22 11:35:41;;;;;;;;;;;;;;;33.07;37.04;98870.19;4954743;28;1111;-63
2022/08/22 11:38:32;;;;;;;;;;;;;;;33.12;37.14;98867.09;4955276;29;897;-63
2022/08/22 11:41:11;;;;;;;;;;;;;;;33.06;37.97;98860.81;4955138;29;886;-63
2022/08/22 11:44:06;;;;;;;;;;;;;;;32.95;40.08;98869.88;4955067;29;827;-63
2022/08/22 11:46:41;;;;;;;;;;;;;;;32.70;41.78;98862.00;4955095;29;1143;-64
2022/08/22 11:49:26;;;;;;;;;;;;;;;32.51;42.43;98862.44;4954928;29;815;-63
2022/08/22 11:52:06;;;;;;;;;;;;;;;33.11;41.80;98856.22;4954968;29;839;-64
2022/08/22 11:54:45;;;;;;;;;;;;;;;34.88;39.53;98845.78;4955127;29;804;-64
2022/08/22 11:57:35;;;;;;;;;;;;;;;35.49;37.33;98850.56;4954862;29;890;-64
2022/08/22 12:00:12;;;;;;;;;;;;;;;35.58;36.55;98849.84;4955073;29;843;-64
2022/08/22 12:02:57;;;;;;;;;;;;;;;35.52;36.92;98840.00;4954775;29;834;-64
2022/08/22 12:05:29;;;;;;;;;;;;;;;35.89;37.21;98842.78;4954567;29;1882;-63
2022/08/22 12:08:14;;;;;;;;;;;;;;;36.24;35.55;98836.78;4933994;29;1388;-64
2022/08/22 12:10:57;;;;;;;;;;;;;;;36.60;35.58;98832.94;4935490;29;827;-64
2022/08/22 12:13:53;;;;;;;;;;;;;;;36.69;35.52;98837.19;4935410;29;854;-64
2022/08/22 12:16:31;;;;;;;;;;;;;;;37.39;34.52;98831.31;4935381;29;866;-64
2022/08/22 12:19:18;;;;;;;;;;;;;;;37.69;33.51;98835.53;4935574;29;851;-64
2022/08/22 12:22:05;;;;;;;;;;;;;;;37.61;33.24;98834.22;4935347;29;796;-64
2022/08/22 12:24:34;;;;;;;;;;;;;;;38.11;33.09;98830.38;4935374;29;1907;-65
2022/08/22 12:27:13;;;;;;;;;;;;;;;37.79;33.21;98823.94;4935216;29;874;-64
2022/08/22 12:30:00;;;;;;;;;;;;;;;36.23;34.56;98830.25;4935072;29;878;-64
2022/08/22 12:32:47;;;;;;;;;;;;;;;35.03;36.55;98827.56;4935015;29;847;-64
2022/08/22 12:50:54;;;;;;;;;;;;;;;36.95;33.95;98818.16;4935077;29;618;-63
2022/08/22 12:53:46;;;;;;;;;;;;;;;37.46;33.86;98818.81;4918773;29;1325;-65
2022/08/22 12:56:38;;;;;;;;;;;;;;;37.81;33.46;98812.53;4934688;29;807;-64
2022/08/22 12:59:34;;;;;;;;;;;;;;;37.68;33.39;98813.09;4934584;29;847;-64
2022/08/22 13:02:10;;;;;;;;;;;;;;;35.85;36.33;98808.00;4933523;29;1497;-64
2022/08/22 13:04:55;;;;;;;;;;;;;;;34.48;38.61;98821.06;4934717;29;1952;-65
2022/08/22 13:10:57;;;;;;;;;;;;;;;34.38;39.84;98806.69;4953706;29;637;-65
2022/08/22 13:13:42;;;;;;;;;;;;;;;35.05;37.85;98801.91;4953797;29;819;-64
2022/08/22 13:16:10;;;;;;;;;;;;;;;34.74;38.37;98808.13;4953665;29;823;-63
2022/08/22 13:18:41;;;;;;;;;;;;;;;34.90;38.44;98812.25;4953556;29;856;-64
2022/08/22 13:21:11;;;;;;;;;;;;;;;35.57;36.99;98808.09;4953553;29;807;-64
2022/08/22 13:23:42;;;;;;;;;;;;;;;36.39;36.04;98810.56;4953430;29;977;-64
2022/08/22 13:26:12;;;;;;;;;;;;;;;36.45;35.25;98810.25;4953818;29;1922;-64
2022/08/22 13:28:58;;;;;;;;;;;;;;;36.34;35.23;98808.75;4936150;29;1186;-64
2022/08/22 13:31:25;;;;;;;;;;;;;;;36.27;34.89;98806.78;4953463;29;863;-64
2022/08/22 13:33:56;;;;;;;;;;;;;;;36.17;35.21;98810.44;4953556;29;836;-64
2022/08/22 13:36:24;;;;;;;;;;;;;;;35.96;35.97;98808.16;4953399;29;819;-64
2022/08/22 13:39:10;;;;;;;;;;;;;;;36.06;35.46;98799.53;4953318;29;835;-64
2022/08/22 13:41:44;;;;;;;;;;;;;;;36.36;35.40;98803.13;4943053;29;1223;-64
2022/08/22 13:44:13;;;;;;;;;;;;;;;36.32;35.23;98805.75;4953434;29;1954;-65
2022/08/22 13:46:47;;;;;;;;;;;;;;;36.16;35.29;98808.91;4953362;29;838;-64
2022/08/22 13:49:17;;;;;;;;;;;;;;;35.98;35.80;98805.44;4953920;29;866;-64
2022/08/22 13:51:56;;;;;;;;;;;;;;;35.89;36.25;98811.16;4953306;29;870;-65
2022/08/22 13:54:42;;;;;;;;;;;;;;;35.55;36.25;98804.31;4953324;29;823;-64
2022/08/22 13:57:13;;;;;;;;;;;;;;;35.18;36.48;98808.00;4952989;28;1794;-64
2022/08/22 14:00:00;;;;;;;;;;;;;;;35.20;36.63;98813.16;4956972;29;791;-64
2022/08/22 14:02:44;;;;;;;;;;;;;;;35.15;36.36;98820.69;4956856;29;1542;-64
2022/08/22 14:05:15;;;;;;;;;;;;;;;35.05;37.47;98816.25;4956871;29;1886;-64
2022/08/22 14:07:57;;;;;;;;;;;;;;;35.10;37.08;98821.72;4956617;29;1462;-64
2022/08/22 14:10:27;;;;;;;;;;;;;;;34.69;38.02;98837.81;4956842;29;815;-64
2022/08/22 14:12:53;;;;;;;;;;;;;;;34.51;38.31;98832.09;4956770;29;1036;-63
2022/08/22 14:15:27;;;;;;;;;;;;;;;34.20;38.84;98830.97;4956722;29;811;-64
2022/08/22 14:18:21;;;;;;;;;;;;;;;33.91;39.47;98845.81;4956657;29;835;-64
2022/08/22 14:21:13;;;;;;;;;;;;;;;33.67;40.22;98842.44;4953912;29;1061;-65
2022/08/22 14:23:40;;;;;;;;;;;;;;;33.41;40.88;98835.19;4956675;29;886;-64
2022/08/22 14:26:21;;;;;;;;;;;;;;;33.40;41.11;98842.25;4956434;29;1914;-64
2022/08/22 14:28:48;;;;;;;;;;;;;;;33.20;41.62;98837.66;4956450;29;800;-63
2022/08/22 14:31:21;;;;;;;;;;;;;;;33.15;41.55;98834.44;4956506;29;795;-64
2022/08/22 14:33:52;;;;;;;;;;;;;;;33.14;41.41;98830.06;4956378;29;811;-64
2022/08/22 14:36:22;;;;;;;;;;;;;;;32.84;41.86;98824.53;4956395;29;815;-65
2022/08/22 14:38:56;;;;;;;;;;;;;;;32.62;42.33;98826.19;4956183;29;997;-64
2022/08/22 14:41:23;;;;;;;;;;;;;;;32.52;42.35;98829.66;4956519;29;871;-63
2022/08/22 14:43:59;;;;;;;;;;;;;;;32.58;42.21;98826.59;4956900;29;744;-63
2022/08/22 14:46:40;;;;;;;;;;;;;;;32.55;42.64;98819.19;4956369;29;1894;-64
2022/08/22 14:49:12;;;;;;;;;;;;;;;32.74;42.21;98815.81;4956200;29;819;-64
2022/08/22 14:51:39;;;;;;;;;;;;;;;32.79;42.33;98817.69;4956047;29;772;-64
2022/08/22 14:54:14;;;;;;;;;;;;;;;32.73;42.40;98814.28;4955984;29;816;-63
2022/08/22 14:56:41;;;;;;;;;;;;;;;32.45;42.11;98819.00;4956016;29;811;-64
2022/08/22 14:59:12;;;;;;;;;;;;;;;32.47;42.56;98815.56;4955887;29;1001;-64
2022/08/22 15:01:57;;;;;;;;;;;;;;;32.49;42.39;98816.50;4956108;29;1022;-64
2022/08/22 15:04:35;;;;;;;;;;;;;;;32.29;42.60;98812.59;4955695;29;1882;-63
2022/08/22 15:07:04;;;;;;;;;;;;;;;32.20;42.87;98821.03;4955544;29;1308;-63
2022/08/22 15:09:34;;;;;;;;;;;;;;;32.08;43.96;98817.84;4955058;28;800;-64
2022/08/22 15:12:01;;;;;;;;;;;;;;;32.10;43.63;98818.03;4955819;29;804;-64
2022/08/22 15:14:37;;;;;;;;;;;;;;;31.83;44.08;98821.28;4955772;29;866;-64
2022/08/22 15:29:17;;;;;;;;;;;;;;;30.23;49.98;98819.75;4955673;29;678;-64
2022/08/22 15:31:50;;;;;;;;;;;;;;;29.97;50.59;98821.53;4955319;29;800;-63
2022/08/22 15:34:37;;;;;;;;;;;;;;;29.71;51.64;98823.28;4955217;29;874;-64
2022/08/22 15:37:06;;;;;;;;;;;;;;;29.46;52.90;98819.28;4955309;29;894;-63
2022/08/22 15:39:33;;;;;;;;;;;;;;;29.25;53.90;98822.16;4955239;29;807;-63
2022/08/22 15:42:09;;;;;;;;;;;;;;;29.14;54.56;98823.22;4955179;29;796;-63
2022/08/22 15:47:40;;;;;;;;;;;;;;;28.90;55.98;98833.59;4955056;29;618;-65
2022/08/22 15:50:12;;;;;;;;;;;;;;;28.84;56.07;98837.88;4955003;29;851;-65
2022/08/22 15:53:12;;;;;;;;;;;;;;;28.61;56.18;98835.56;4954929;29;902;-64
2022/08/22 15:55:59;;;;;;;;;;;;;;;28.38;56.47;98829.59;4895715;29;1524;-65
2022/08/22 15:58:44;;;;;;;;;;;;;;;28.34;56.37;98836.94;4895600;29;1028;-65
2022/08/22 16:04:33;;;;;;;;;;;;;;;28.13;56.99;98837.63;4895614;29;1958;-66
2022/08/22 16:07:30;;;;;;;;;;;;;;;27.97;57.63;98842.31;4895291;29;1348;-66
2022/08/22 16:10:00;;;;;;;;;;;;;;;27.89;58.16;98847.16;4879963;29;1386;-65
2022/08/22 16:12:32;;;;;;;;;;;;;;;27.73;58.38;98846.13;4895596;29;1053;-65
2022/08/22 16:15:03;;;;;;;;;;;;;;;27.59;59.54;98844.56;4895455;29;868;-68
2022/08/22 16:17:30;;;;;;;;;;;;;;;27.35;60.16;98839.84;4895618;29;1137;-65
2022/08/22 16:20:09;;;;;;;;;;;;;;;27.17;60.72;98838.59;4895428;29;867;-66
2022/08/22 16:22:57;;;;;;;;;;;;;;;27.00;62.04;98833.94;4894508;29;1004;-66
2022/08/22 16:25:46;;;;;;;;;;;;;;;26.74;63.08;98837.47;4895173;29;1973;-67
2022/08/22 16:28:29;;;;;;;;;;;;;;;26.65;64.10;98840.66;4885542;29;1077;-65
2022/08/22 16:30:57;;;;;;;;;;;;;;;26.52;64.96;98841.34;4910424;29;890;-66
2022/08/22 16:33:31;;;;;;;;;;;;;;;26.36;66.14;98839.50;4935192;29;870;-65
2022/08/22 16:36:18;;;;;;;;;;;;;;;26.21;67.71;98843.56;4935046;29;800;-66
2022/08/22 16:38:49;;;;;;;;;;;;;;;26.06;68.66;98840.41;4934912;29;872;-66
2022/08/22 16:41:43;;;;;;;;;;;;;;;25.91;69.51;98838.00;4934973;29;1013;-66
2022/08/22 16:44:20;;;;;;;;;;;;;;;25.73;70.24;98842.28;4933186;29;1175;-66
2022/08/22 16:46:50;;;;;;;;;;;;;;;25.57;71.21;98846.06;4934833;29;884;-66
2022/08/22 16:49:28;;;;;;;;;;;;;;;25.42;71.74;98852.88;4934841;29;791;-66
2022/08/22 16:52:21;;;;;;;;;;;;;;;25.31;72.46;98858.66;4935171;29;776;-66
2022/08/22 16:55:16;;;;;;;;;;;;;;;25.19;73.45;98865.66;4919569;29;1270;-67
2022/08/22 16:57:55;;;;;;;;;;;;;;;25.00;74.13;98866.31;4934740;29;812;-66
2022/08/22 17:00:40;;;;;;;;;;;;;;;24.88;74.64;98864.09;4934583;29;895;-66
2022/08/22 17:03:09;;;;;;;;;;;;;;;24.76;75.31;98857.75;4934899;29;800;-66
2022/08/22 17:05:36;;;;;;;;;;;;;;;24.67;75.92;98861.66;4934655;29;1883;-66
2022/08/22 17:08:08;;;;;;;;;;;;;;;24.58;76.02;98862.75;4950720;29;1275;-66
2022/08/22 17:10:40;;;;;;;;;;;;;;;24.56;76.85;98875.84;4953710;29;839;-66
2022/08/22 17:13:28;;;;;;;;;;;;;;;24.52;77.45;98875.38;4953615;29;796;-66
2022/08/22 17:16:05;;;;;;;;;;;;;;;24.44;78.25;98886.41;4923993;29;983;-66
2022/08/22 17:18:32;;;;;;;;;;;;;;;24.32;78.95;98901.84;4953877;29;831;-66
2022/08/22 17:21:16;;;;;;;;;;;;;;;24.16;79.53;98904.22;4953737;29;839;-66
2022/08/22 17:23:53;;;;;;;;;;;;;;;24.01;80.22;98924.28;4953682;29;816;-66
2022/08/22 17:26:20;;;;;;;;;;;;;;;23.88;80.94;98920.47;4953676;29;1974;-66
2022/08/22 17:29:16;;;;;;;;;;;;;;;23.73;81.77;98927.13;4953465;29;804;-66
2022/08/22 17:31:52;;;;;;;;;;;;;;;23.60;82.90;98938.19;4940735;29;1111;-66
2022/08/22 17:34:29;;;;;;;;;;;;;;;23.52;84.07;98939.97;4957030;29;893;-66
2022/08/22 17:37:05;;;;;;;;;;;;;;;23.43;84.06;98929.72;4940257;29;1602;-66